sensor_id;sensor_type;location;lat;lon;timestamp;pressure;altitude;pressure_sealevel;temperature;humidity
36692;BME280;22678;52.052;4.242;2023-04-15T00:01:08;100865.97;;;11.13;54.01
36692;BME280;22678;52.052;4.242;2023-04-15T00:03:34;100860.75;;;11.10;53.75
36692;BME280;22678;52.052;4.242;2023-04-15T00:05:59;100853.78;;;11.05;53.79
36692;BME280;22678;52.052;4.242;2023-04-15T00:08:25;100864.25;;;11.12;53.90
36692;BME280;22678;52.052;4.242;2023-04-15T00:10:51;100851.13;;;11.05;53.79
36692;BME280;22678;52.052;4.242;2023-04-15T00:13:17;100859.03;;;11.05;53.88
36692;BME280;22678;52.052;4.242;2023-04-15T00:15:42;100857.34;;;11.01;53.97
36692;BME280;22678;52.052;4.242;2023-04-15T00:18:08;100864.34;;;11.02;54.03
36692;BME280;22678;52.052;4.242;2023-04-15T00:20:33;100857.41;;;10.97;54.08
36692;BME280;22678;52.052;4.242;2023-04-15T00:23:00;100857.38;;;10.95;54.21
36692;BME280;22678;52.052;4.242;2023-04-15T00:25:26;100860.91;;;10.94;54.19
36692;BME280;22678;52.052;4.242;2023-04-15T00:27:52;100854.78;;;10.91;54.04
36692;BME280;22678;52.052;4.242;2023-04-15T00:30:17;100872.28;;;10.98;54.30
36692;BME280;22678;52.052;4.242;2023-04-15T00:32:43;100872.28;;;10.96;54.38
36692;BME280;22678;52.052;4.242;2023-04-15T00:35:09;100863.63;;;10.88;54.82
36692;BME280;22678;52.052;4.242;2023-04-15T00:37:34;100876.75;;;10.91;54.29
36692;BME280;22678;52.052;4.242;2023-04-15T00:40:01;100863.63;;;10.86;54.49
36692;BME280;22678;52.052;4.242;2023-04-15T00:42:29;100851.44;;;10.73;54.40
36692;BME280;22678;52.052;4.242;2023-04-15T00:44:55;100875.00;;;10.87;54.34
36692;BME280;22678;52.052;4.242;2023-04-15T00:47:21;100870.72;;;10.78;54.42
36692;BME280;22678;52.052;4.242;2023-04-15T00:49:46;100863.69;;;10.76;54.53
36692;BME280;22678;52.052;4.242;2023-04-15T00:52:12;100883.00;;;10.78;54.47
36692;BME280;22678;52.052;4.242;2023-04-15T00:54:37;100864.63;;;10.68;54.42
36692;BME280;22678;52.052;4.242;2023-04-15T00:57:04;100878.66;;;10.71;54.45
36692;BME280;22678;52.052;4.242;2023-04-15T00:59:32;100883.94;;;10.71;54.42
36692;BME280;22678;52.052;4.242;2023-04-15T01:01:57;100874.34;;;10.62;54.24
36692;BME280;22678;52.052;4.242;2023-04-15T01:04:23;100880.47;;;10.62;54.43
36692;BME280;22678;52.052;4.242;2023-04-15T01:06:49;100875.25;;;10.59;54.05
36692;BME280;22678;52.052;4.242;2023-04-15T01:09:15;100864.81;;;10.47;54.40
36692;BME280;22678;52.052;4.242;2023-04-15T01:11:40;100871.84;;;10.45;54.44
36692;BME280;22678;52.052;4.242;2023-04-15T01:14:08;100864.84;;;10.41;54.36
36692;BME280;22678;52.052;4.242;2023-04-15T01:16:33;100891.13;;;10.47;54.34
36692;BME280;22678;52.052;4.242;2023-04-15T01:18:58;100881.50;;;10.43;54.65
36692;BME280;22678;52.052;4.242;2023-04-15T01:21:24;100884.13;;;10.43;54.71
36692;BME280;22678;52.052;4.242;2023-04-15T01:23:49;100871.06;;;10.33;54.75
36692;BME280;22678;52.052;4.242;2023-04-15T01:26:17;100860.53;;;10.26;54.73
36692;BME280;22678;52.052;4.242;2023-04-15T01:28:42;100871.94;;;10.29;54.76
36692;BME280;22678;52.052;4.242;2023-04-15T01:31:13;100885.03;;;10.37;54.66
36692;BME280;22678;52.052;4.242;2023-04-15T01:33:40;100879.78;;;10.36;55.14
36692;BME280;22678;52.052;4.242;2023-04-15T01:36:08;100882.44;;;10.34;54.92
36692;BME280;22678;52.052;4.242;2023-04-15T01:38:34;100876.31;;;10.26;55.18
36692;BME280;22678;52.052;4.242;2023-04-15T01:41:00;100885.06;;;10.31;55.24
36692;BME280;22678;52.052;4.242;2023-04-15T01:43:25;100875.47;;;10.21;55.09
36692;BME280;22678;52.052;4.242;2023-04-15T01:45:52;100882.47;;;10.23;55.03
36692;BME280;22678;52.052;4.242;2023-04-15T01:48:17;100881.59;;;10.23;55.20
36692;BME280;22678;52.052;4.242;2023-04-15T01:50:43;100884.22;;;10.24;55.12
36692;BME280;22678;52.052;4.242;2023-04-15T01:53:09;100878.97;;;10.20;55.27
36692;BME280;22678;52.052;4.242;2023-04-15T01:55:35;100884.25;;;10.18;55.23
36692;BME280;22678;52.052;4.242;2023-04-15T01:58:01;100880.78;;;10.16;55.18
36692;BME280;22678;52.052;4.242;2023-04-15T02:00:26;100884.28;;;10.15;55.24
36692;BME280;22678;52.052;4.242;2023-04-15T02:02:52;100888.66;;;10.14;55.31
36692;BME280;22678;52.052;4.242;2023-04-15T02:05:18;100886.91;;;10.15;55.39
36692;BME280;22678;52.052;4.242;2023-04-15T02:07:44;100873.81;;;10.06;55.24
36692;BME280;22678;52.052;4.242;2023-04-15T02:10:09;100824.97;;;9.71;55.66
36692;BME280;22678;52.052;4.242;2023-04-15T02:12:35;100880.84;;;10.02;55.34
36692;BME280;22678;52.052;4.242;2023-04-15T02:15:01;100874.78;;;9.92;55.79
36692;BME280;22678;52.052;4.242;2023-04-15T02:17:26;100896.59;;;10.00;55.88
36692;BME280;22678;52.052;4.242;2023-04-15T02:19:52;100885.28;;;9.94;56.23
36692;BME280;22678;52.052;4.242;2023-04-15T02:22:17;100887.03;;;9.90;56.19
36692;BME280;22678;52.052;4.242;2023-04-15T02:24:43;100902.75;;;9.93;56.25
36692;BME280;22678;52.052;4.242;2023-04-15T02:27:10;100877.44;;;9.80;56.44
36692;BME280;22678;52.052;4.242;2023-04-15T02:29:35;100890.56;;;9.83;56.37
36692;BME280;22678;52.052;4.242;2023-04-15T02:32:00;100900.19;;;9.82;56.57
36692;BME280;22678;52.052;4.242;2023-04-15T02:34:26;100905.44;;;9.81;56.60
36692;BME280;22678;52.052;4.242;2023-04-15T02:36:51;100914.22;;;9.78;56.79
36692;BME280;22678;52.052;4.242;2023-04-15T02:39:21;100908.97;;;9.77;57.16
36692;BME280;22678;52.052;4.242;2023-04-15T02:41:47;100919.47;;;9.77;57.00
36692;BME280;22678;52.052;4.242;2023-04-15T02:44:16;100908.13;;;9.70;57.16
36692;BME280;22678;52.052;4.242;2023-04-15T02:46:44;100911.66;;;9.64;57.22
36692;BME280;22678;52.052;4.242;2023-04-15T02:49:10;100913.38;;;9.70;57.65
36692;BME280;22678;52.052;4.242;2023-04-15T02:51:36;100914.28;;;9.64;57.89
36692;BME280;22678;52.052;4.242;2023-04-15T02:54:01;100917.78;;;9.60;58.11
36692;BME280;22678;52.052;4.242;2023-04-15T02:56:26;100923.03;;;9.60;57.86
36692;BME280;22678;52.052;4.242;2023-04-15T02:58:52;100909.06;;;9.49;57.75
36692;BME280;22678;52.052;4.242;2023-04-15T03:01:20;100922.16;;;9.55;58.17
36692;BME280;22678;52.052;4.242;2023-04-15T03:03:46;100927.41;;;9.55;58.54
36692;BME280;22678;52.052;4.242;2023-04-15T03:06:11;100930.91;;;9.57;58.40
36692;BME280;22678;52.052;4.242;2023-04-15T03:08:36;100925.69;;;9.46;58.62
36692;BME280;22678;52.052;4.242;2023-04-15T03:11:02;100928.31;;;9.45;58.65
36692;BME280;22678;52.052;4.242;2023-04-15T03:13:28;100938.78;;;9.48;58.74
36692;BME280;22678;52.052;4.242;2023-04-15T03:15:53;100951.06;;;9.51;58.85
36692;BME280;22678;52.052;4.242;2023-04-15T03:18:18;100938.81;;;9.42;59.10
36692;BME280;22678;52.052;4.242;2023-04-15T03:20:44;100951.94;;;9.42;59.34
36692;BME280;22678;52.052;4.242;2023-04-15T03:23:09;100951.09;;;9.40;59.57
36692;BME280;22678;52.052;4.242;2023-04-15T03:25:35;100963.31;;;9.38;59.31
36692;BME280;22678;52.052;4.242;2023-04-15T03:28:02;100958.06;;;9.35;59.46
36692;BME280;22678;52.052;4.242;2023-04-15T03:30:27;100950.22;;;9.24;59.54
36692;BME280;22678;52.052;4.242;2023-04-15T03:32:52;100965.94;;;9.32;59.63
36692;BME280;22678;52.052;4.242;2023-04-15T03:35:18;100966.84;;;9.34;60.04
36692;BME280;22678;52.052;4.242;2023-04-15T03:37:43;100958.09;;;9.22;59.91
36692;BME280;22678;52.052;4.242;2023-04-15T03:40:09;100975.59;;;9.26;59.89
36692;BME280;22678;52.052;4.242;2023-04-15T03:42:34;100973.84;;;9.25;60.20
36692;BME280;22678;52.052;4.242;2023-04-15T03:45:00;100982.56;;;9.21;60.40
36692;BME280;22678;52.052;4.242;2023-04-15T03:47:25;100989.59;;;9.22;60.15
36692;BME280;22678;52.052;4.242;2023-04-15T03:49:50;100984.34;;;9.16;60.58
36692;BME280;22678;52.052;4.242;2023-04-15T03:52:16;100970.34;;;9.08;60.38
36692;BME280;22678;52.052;4.242;2023-04-15T03:54:41;100981.72;;;9.13;60.27
36692;BME280;22678;52.052;4.242;2023-04-15T03:57:06;100974.72;;;9.03;60.93
36692;BME280;22678;52.052;4.242;2023-04-15T03:59:32;100982.59;;;9.06;60.80
36692;BME280;22678;52.052;4.242;2023-04-15T04:01:57;100993.09;;;9.10;61.11
36692;BME280;22678;52.052;4.242;2023-04-15T04:04:22;101006.19;;;9.07;61.11
36692;BME280;22678;52.052;4.242;2023-04-15T04:06:47;100986.94;;;9.04;61.54
36692;BME280;22678;52.052;4.242;2023-04-15T04:09:13;100994.81;;;9.01;61.35
36692;BME280;22678;52.052;4.242;2023-04-15T04:11:38;100976.47;;;8.87;61.41
36692;BME280;22678;52.052;4.242;2023-04-15T04:14:03;101003.56;;;8.93;61.69
36692;BME280;22678;52.052;4.242;2023-04-15T04:16:29;101015.81;;;8.94;61.77
36692;BME280;22678;52.052;4.242;2023-04-15T04:18:54;101024.56;;;8.97;61.90
36692;BME280;22678;52.052;4.242;2023-04-15T04:21:19;101027.16;;;8.92;62.02
36692;BME280;22678;52.052;4.242;2023-04-15T04:23:45;101035.91;;;8.91;62.13
36692;BME280;22678;52.052;4.242;2023-04-15T04:26:11;101028.91;;;8.90;62.45
36692;BME280;22678;52.052;4.242;2023-04-15T04:28:36;101030.63;;;8.85;62.41
36692;BME280;22678;52.052;4.242;2023-04-15T04:31:03;101024.53;;;8.81;62.61
36692;BME280;22678;52.052;4.242;2023-04-15T04:33:28;101037.63;;;8.80;62.80
36692;BME280;22678;52.052;4.242;2023-04-15T04:35:54;101029.75;;;8.78;63.23
36692;BME280;22678;52.052;4.242;2023-04-15T04:38:19;101041.13;;;8.77;63.55
36692;BME280;22678;52.052;4.242;2023-04-15T04:40:45;101032.38;;;8.67;63.48
36692;BME280;22678;52.052;4.242;2023-04-15T04:43:11;101035.00;;;8.66;63.49
36692;BME280;22678;52.052;4.242;2023-04-15T04:45:36;101053.34;;;8.67;63.52
36692;BME280;22678;52.052;4.242;2023-04-15T04:48:02;101057.69;;;8.67;63.87
36692;BME280;22678;52.052;4.242;2023-04-15T04:50:31;101055.03;;;8.53;63.58
36692;BME280;22678;52.052;4.242;2023-04-15T04:52:56;101066.41;;;8.64;64.01
36692;BME280;22678;52.052;4.242;2023-04-15T04:55:21;101062.91;;;8.57;64.24
36692;BME280;22678;52.052;4.242;2023-04-15T04:57:46;101071.63;;;8.56;64.41
36692;BME280;22678;52.052;4.242;2023-04-15T05:00:12;101076.03;;;8.57;64.52
36692;BME280;22678;52.052;4.242;2023-04-15T05:02:38;101062.91;;;8.48;64.47
36692;BME280;22678;52.052;4.242;2023-04-15T05:05:03;101076.00;;;8.48;64.76
36692;BME280;22678;52.052;4.242;2023-04-15T05:07:29;101087.34;;;8.53;64.81
36692;BME280;22678;52.052;4.242;2023-04-15T05:09:54;101100.44;;;8.49;65.22
36692;BME280;22678;52.052;4.242;2023-04-15T05:12:20;101105.72;;;8.55;65.17
36692;BME280;22678;52.052;4.242;2023-04-15T05:14:45;101082.03;;;8.41;65.19
36692;BME280;22678;52.052;4.242;2023-04-15T05:17:10;101109.22;;;8.54;65.57
36692;BME280;22678;52.052;4.242;2023-04-15T05:19:36;101113.59;;;8.56;65.35
36692;BME280;22678;52.052;4.242;2023-04-15T05:22:01;101123.22;;;8.59;65.74
36692;BME280;22678;52.052;4.242;2023-04-15T05:24:27;101128.47;;;8.64;65.77
36692;BME280;22678;52.052;4.242;2023-04-15T05:26:52;101113.56;;;8.52;65.69
36692;BME280;22678;52.052;4.242;2023-04-15T05:29:18;101127.59;;;8.55;65.66
36692;BME280;22678;52.052;4.242;2023-04-15T05:31:43;101133.72;;;8.62;65.87
36692;BME280;22678;52.052;4.242;2023-04-15T05:34:08;101136.34;;;8.64;65.87
36692;BME280;22678;52.052;4.242;2023-04-15T05:36:35;101136.34;;;8.64;65.86
36692;BME280;22678;52.052;4.242;2023-04-15T05:39:01;101158.22;;;8.66;66.17
36692;BME280;22678;52.052;4.242;2023-04-15T05:41:26;101161.72;;;8.68;66.25
36692;BME280;22678;52.052;4.242;2023-04-15T05:43:51;101155.56;;;8.63;66.20
36692;BME280;22678;52.052;4.242;2023-04-15T05:46:17;101176.59;;;8.76;66.23
36692;BME280;22678;52.052;4.242;2023-04-15T05:48:42;101174.84;;;8.74;65.91
36692;BME280;22678;52.052;4.242;2023-04-15T05:51:08;101195.84;;;8.80;66.33
36692;BME280;22678;52.052;4.242;2023-04-15T05:53:33;101193.22;;;8.79;66.09
36692;BME280;22678;52.052;4.242;2023-04-15T05:55:58;101199.38;;;8.82;66.46
36692;BME280;22678;52.052;4.242;2023-04-15T05:58:24;101194.09;;;8.76;66.35
36692;BME280;22678;52.052;4.242;2023-04-15T06:00:49;101201.09;;;8.82;66.53
36692;BME280;22678;52.052;4.242;2023-04-15T06:03:15;101216.91;;;8.92;66.37
36692;BME280;22678;52.052;4.242;2023-04-15T06:05:40;101202.88;;;8.90;66.68
36692;BME280;22678;52.052;4.242;2023-04-15T06:08:06;101215.19;;;9.04;66.76
36692;BME280;22678;52.052;4.242;2023-04-15T06:10:34;101219.56;;;9.08;66.68
36692;BME280;22678;52.052;4.242;2023-04-15T06:13:03;101212.63;;;9.15;66.55
36692;BME280;22678;52.052;4.242;2023-04-15T06:15:29;101223.16;;;9.32;66.39
36692;BME280;22678;52.052;4.242;2023-04-15T06:17:54;101231.09;;;9.44;66.42
36692;BME280;22678;52.052;4.242;2023-04-15T06:20:20;101234.59;;;9.52;66.13
36692;BME280;22678;52.052;4.242;2023-04-15T06:22:45;101253.88;;;9.73;66.05
36692;BME280;22678;52.052;4.242;2023-04-15T06:25:10;101245.13;;;9.77;65.70
36692;BME280;22678;52.052;4.242;2023-04-15T06:27:36;101270.56;;;10.01;65.66
36692;BME280;22678;52.052;4.242;2023-04-15T06:30:01;101264.44;;;10.10;65.32
36692;BME280;22678;52.052;4.242;2023-04-15T06:32:26;101260.94;;;10.17;64.98
36692;BME280;22678;52.052;4.242;2023-04-15T06:34:52;101255.66;;;10.20;64.65
36692;BME280;22678;52.052;4.242;2023-04-15T06:37:17;101272.34;;;10.38;64.66
36692;BME280;22678;52.052;4.242;2023-04-15T06:39:42;101280.25;;;10.53;64.29
36692;BME280;22678;52.052;4.242;2023-04-15T06:42:09;101289.00;;;10.67;64.25
36692;BME280;22678;52.052;4.242;2023-04-15T06:44:35;101264.44;;;10.67;63.80
36692;BME280;22678;52.052;4.242;2023-04-15T06:47:01;101294.22;;;10.87;63.68
36692;BME280;22678;52.052;4.242;2023-04-15T06:49:26;101290.69;;;10.96;63.20
36692;BME280;22678;52.052;4.242;2023-04-15T06:51:52;101287.16;;;11.07;63.04
36692;BME280;22678;52.052;4.242;2023-04-15T06:54:17;101295.88;;;11.21;62.72
36692;BME280;22678;52.052;4.242;2023-04-15T06:56:42;101295.84;;;11.30;62.55
36692;BME280;22678;52.052;4.242;2023-04-15T06:59:08;101289.66;;;11.36;62.26
36692;BME280;22678;52.052;4.242;2023-04-15T07:01:33;101302.78;;;11.53;61.96
36692;BME280;22678;52.052;4.242;2023-04-15T07:03:59;101302.75;;;11.59;61.82
36692;BME280;22678;52.052;4.242;2023-04-15T07:06:24;101298.28;;;11.69;61.63
36692;BME280;22678;52.052;4.242;2023-04-15T07:08:50;101302.59;;;11.87;61.21
36692;BME280;22678;52.052;4.242;2023-04-15T07:11:15;101309.56;;;12.02;60.67
36692;BME280;22678;52.052;4.242;2023-04-15T07:13:41;101316.47;;;12.17;60.66
36692;BME280;22678;52.052;4.242;2023-04-15T07:16:06;101313.72;;;12.29;60.31
36692;BME280;22678;52.052;4.242;2023-04-15T07:18:33;101321.53;;;12.44;59.89
36692;BME280;22678;52.052;4.242;2023-04-15T07:20:58;101323.22;;;12.55;59.74
36692;BME280;22678;52.052;4.242;2023-04-15T07:23:26;101326.59;;;12.69;59.39
36692;BME280;22678;52.052;4.242;2023-04-15T07:25:52;101338.75;;;12.86;58.81
36692;BME280;22678;52.052;4.242;2023-04-15T07:28:17;101327.38;;;12.77;57.48
36692;BME280;22678;52.052;4.242;2023-04-15T07:30:42;101361.53;;;12.96;57.45
36692;BME280;22678;52.052;4.242;2023-04-15T07:33:08;101359.75;;;12.96;57.40
36692;BME280;22678;52.052;4.242;2023-04-15T07:35:33;101365.81;;;13.09;57.35
36692;BME280;22678;52.052;4.242;2023-04-15T07:37:59;101375.34;;;13.23;56.84
36692;BME280;22678;52.052;4.242;2023-04-15T07:40:24;101383.16;;;13.30;56.09
36692;BME280;22678;52.052;4.242;2023-04-15T07:42:49;101382.31;;;13.30;56.16
36692;BME280;22678;52.052;4.242;2023-04-15T07:45:15;101382.31;;;13.30;55.70
36692;BME280;22678;52.052;4.242;2023-04-15T07:47:41;101387.59;;;13.30;55.78
36692;BME280;22678;52.052;4.242;2023-04-15T07:50:08;101373.50;;;13.31;55.51
36692;BME280;22678;52.052;4.242;2023-04-15T07:52:33;101391.03;;;13.38;55.26
36692;BME280;22678;52.052;4.242;2023-04-15T07:55:04;101378.56;;;13.51;55.71
36692;BME280;22678;52.052;4.242;2023-04-15T07:57:31;101380.97;;;13.73;55.26
36692;BME280;22678;52.052;4.242;2023-04-15T07:59:56;101397.50;;;13.89;53.75
36692;BME280;22678;52.052;4.242;2023-04-15T08:02:21;101410.63;;;13.96;54.05
36692;BME280;22678;52.052;4.242;2023-04-15T08:04:47;101411.44;;;14.03;54.65
36692;BME280;22678;52.052;4.242;2023-04-15T08:07:12;101424.34;;;14.25;53.97
36692;BME280;22678;52.052;4.242;2023-04-15T08:09:38;101410.22;;;14.26;53.81
36692;BME280;22678;52.052;4.242;2023-04-15T08:12:03;101399.50;;;14.35;53.30
36692;BME280;22678;52.052;4.242;2023-04-15T08:14:28;101418.56;;;14.57;53.22
36692;BME280;22678;52.052;4.242;2023-04-15T08:16:54;101430.69;;;14.74;52.88
36692;BME280;22678;52.052;4.242;2023-04-15T08:19:19;101433.13;;;14.87;52.61
36692;BME280;22678;52.052;4.242;2023-04-15T08:21:45;101424.94;;;15.00;52.50
36692;BME280;22678;52.052;4.242;2023-04-15T08:24:10;101425.66;;;15.11;52.04
36692;BME280;22678;52.052;4.242;2023-04-15T08:26:37;101435.25;;;15.18;51.55
36692;BME280;22678;52.052;4.242;2023-04-15T08:29:02;101438.56;;;15.30;51.63
36692;BME280;22678;52.052;4.242;2023-04-15T08:31:28;101446.09;;;15.51;51.35
36692;BME280;22678;52.052;4.242;2023-04-15T08:33:56;101436.22;;;15.61;50.97
36692;BME280;22678;52.052;4.242;2023-04-15T08:36:21;101442.19;;;15.72;50.64
36692;BME280;22678;52.052;4.242;2023-04-15T08:38:47;101461.38;;;15.85;50.46
36692;BME280;22678;52.052;4.242;2023-04-15T08:41:45;101453.34;;;15.88;49.93
36692;BME280;22678;52.052;4.242;2023-04-15T08:44:13;101464.69;;;15.97;49.70
36692;BME280;22678;52.052;4.242;2023-04-15T08:46:40;101475.16;;;16.03;49.37
36692;BME280;22678;52.052;4.242;2023-04-15T08:49:09;101461.25;;;15.91;49.10
36692;BME280;22678;52.052;4.242;2023-04-15T08:51:35;101480.47;;;16.03;49.30
36692;BME280;22678;52.052;4.242;2023-04-15T08:54:01;101485.66;;;16.09;49.21
36692;BME280;22678;52.052;4.242;2023-04-15T08:56:30;101488.88;;;16.23;49.11
36692;BME280;22678;52.052;4.242;2023-04-15T08:58:57;101487.06;;;16.27;48.82
36692;BME280;22678;52.052;4.242;2023-04-15T09:01:22;101494.78;;;16.38;48.66
36692;BME280;22678;52.052;4.242;2023-04-15T09:03:48;101503.31;;;16.52;48.47
36692;BME280;22678;52.052;4.242;2023-04-15T09:06:16;101500.22;;;16.71;47.79
36692;BME280;22678;52.052;4.242;2023-04-15T09:08:41;101501.81;;;16.78;47.48
36692;BME280;22678;52.052;4.242;2023-04-15T09:11:06;101515.03;;;16.81;46.58
36692;BME280;22678;52.052;4.242;2023-04-15T09:13:32;101507.06;;;16.81;46.70
36692;BME280;22678;52.052;4.242;2023-04-15T09:16:00;101519.25;;;16.91;46.20
36692;BME280;22678;52.052;4.242;2023-04-15T09:18:27;101520.94;;;16.95;45.35
36692;BME280;22678;52.052;4.242;2023-04-15T09:20:53;101519.91;;;17.01;45.14
36692;BME280;22678;52.052;4.242;2023-04-15T09:23:19;101527.06;;;16.99;44.40
36692;BME280;22678;52.052;4.242;2023-04-15T09:25:44;101540.38;;;16.97;44.26
36692;BME280;22678;52.052;4.242;2023-04-15T09:28:10;101536.88;;;16.95;44.25
36692;BME280;22678;52.052;4.242;2023-04-15T09:30:36;101548.78;;;17.15;43.87
36692;BME280;22678;52.052;4.242;2023-04-15T09:33:03;101539.81;;;17.21;43.74
36692;BME280;22678;52.052;4.242;2023-04-15T09:35:33;101547.03;;;17.50;43.47
36692;BME280;22678;52.052;4.242;2023-04-15T09:38:04;101544.16;;;17.58;42.06
36692;BME280;22678;52.052;4.242;2023-04-15T09:40:40;101552.84;;;17.66;41.42
36692;BME280;22678;52.052;4.242;2023-04-15T09:43:08;101563.44;;;17.67;40.26
36692;BME280;22678;52.052;4.242;2023-04-15T09:45:34;101567.09;;;17.63;40.15
36692;BME280;22678;52.052;4.242;2023-04-15T09:48:22;101560.69;;;17.71;40.09
36692;BME280;22678;52.052;4.242;2023-04-15T09:50:51;101571.75;;;17.88;40.14
36692;BME280;22678;52.052;4.242;2023-04-15T09:53:22;101567.91;;;18.00;40.12
36692;BME280;22678;52.052;4.242;2023-04-15T09:58:34;101584.28;;;18.17;39.73
36692;BME280;22678;52.052;4.242;2023-04-15T10:01:04;101575.19;;;18.26;39.28
36692;BME280;22678;52.052;4.242;2023-04-15T10:03:33;101584.78;;;18.32;38.50
36692;BME280;22678;52.052;4.242;2023-04-15T10:06:02;101593.34;;;18.42;38.79
36692;BME280;22678;52.052;4.242;2023-04-15T10:08:29;101591.34;;;18.50;38.87
36692;BME280;22678;52.052;4.242;2023-04-15T10:10:55;101594.59;;;18.61;38.52
36692;BME280;22678;52.052;4.242;2023-04-15T10:13:25;101596.06;;;18.71;37.58
36692;BME280;22678;52.052;4.242;2023-04-15T10:16:08;101596.22;;;18.65;37.64
36692;BME280;22678;52.052;4.242;2023-04-15T10:18:39;101604.09;;;18.70;38.60
36692;BME280;22678;52.052;4.242;2023-04-15T10:21:05;101589.91;;;18.68;38.05
36692;BME280;22678;52.052;4.242;2023-04-15T10:23:31;101577.31;;;18.74;38.40
36692;BME280;22678;52.052;4.242;2023-04-15T10:25:57;101606.06;;;18.93;39.46
36692;BME280;22678;52.052;4.242;2023-04-15T10:28:23;101595.41;;;18.93;40.12
36692;BME280;22678;52.052;4.242;2023-04-15T10:30:48;101616.25;;;19.08;40.39
36692;BME280;22678;52.052;4.242;2023-04-15T10:33:19;101615.09;;;19.17;40.30
36692;BME280;22678;52.052;4.242;2023-04-15T10:35:46;101593.47;;;19.26;40.41
36692;BME280;22678;52.052;4.242;2023-04-15T10:38:32;101616.34;;;19.34;39.83
36692;BME280;22678;52.052;4.242;2023-04-15T10:41:25;101619.59;;;19.43;40.38
36692;BME280;22678;52.052;4.242;2023-04-15T10:43:59;101630.69;;;19.56;40.40
36692;BME280;22678;52.052;4.242;2023-04-15T10:49:26;101635.53;;;19.72;39.63
36692;BME280;22678;52.052;4.242;2023-04-15T10:52:07;101611.56;;;19.70;39.60
36692;BME280;22678;52.052;4.242;2023-04-15T10:54:32;101606.28;;;19.69;38.80
36692;BME280;22678;52.052;4.242;2023-04-15T10:59:38;101645.59;;;19.64;38.22
36692;BME280;22678;52.052;4.242;2023-04-15T11:02:37;101648.50;;;19.56;39.02
36692;BME280;22678;52.052;4.242;2023-04-15T11:05:03;101657.63;;;19.49;40.24
36692;BME280;22678;52.052;4.242;2023-04-15T11:12:41;101663.44;;;19.35;41.64
36692;BME280;22678;52.052;4.242;2023-04-15T11:15:28;101671.88;;;19.48;41.80
36692;BME280;22678;52.052;4.242;2023-04-15T11:17:58;101676.94;;;19.57;42.37
36692;BME280;22678;52.052;4.242;2023-04-15T11:20:23;101682.66;;;19.73;42.65
36692;BME280;22678;52.052;4.242;2023-04-15T11:22:50;101669.16;;;19.77;43.16
36692;BME280;22678;52.052;4.242;2023-04-15T11:25:26;101693.41;;;19.98;43.12
36692;BME280;22678;52.052;4.242;2023-04-15T11:27:53;101691.31;;;20.06;42.76
36692;BME280;22678;52.052;4.242;2023-04-15T11:30:21;101691.22;;;20.09;42.46
36692;BME280;22678;52.052;4.242;2023-04-15T11:32:47;101698.53;;;20.04;42.37
36692;BME280;22678;52.052;4.242;2023-04-15T11:35:13;101703.25;;;19.96;42.03
36692;BME280;22678;52.052;4.242;2023-04-15T11:37:38;101708.44;;;19.72;42.73
36692;BME280;22678;52.052;4.242;2023-04-15T11:40:05;101709.81;;;19.57;43.47
36692;BME280;22678;52.052;4.242;2023-04-15T11:42:30;101708.28;;;19.50;43.88
36692;BME280;22678;52.052;4.242;2023-04-15T11:45:09;101705.75;;;19.46;44.11
36692;BME280;22678;52.052;4.242;2023-04-15T11:47:36;101723.00;;;19.62;44.21
36692;BME280;22678;52.052;4.242;2023-04-15T11:50:21;101723.44;;;19.76;44.17
36692;BME280;22678;52.052;4.242;2023-04-15T11:52:56;101723.16;;;19.86;43.83
36692;BME280;22678;52.052;4.242;2023-04-15T11:55:22;101723.75;;;19.95;43.70
36692;BME280;22678;52.052;4.242;2023-04-15T11:58:18;101727.78;;;20.07;43.03
36692;BME280;22678;52.052;4.242;2023-04-15T12:00:52;101737.41;;;20.13;43.00
36692;BME280;22678;52.052;4.242;2023-04-15T12:06:07;101733.94;;;20.09;42.63
36692;BME280;22678;52.052;4.242;2023-04-15T12:13:53;101752.13;;;19.98;41.76
36692;BME280;22678;52.052;4.242;2023-04-15T12:16:19;101752.38;;;19.90;41.72
36692;BME280;22678;52.052;4.242;2023-04-15T12:18:45;101760.44;;;19.89;42.38
36692;BME280;22678;52.052;4.242;2023-04-15T12:21:11;101763.19;;;19.86;42.92
36692;BME280;22678;52.052;4.242;2023-04-15T12:23:56;101765.72;;;19.90;43.41
36692;BME280;22678;52.052;4.242;2023-04-15T12:26:27;101768.34;;;19.92;43.80
36692;BME280;22678;52.052;4.242;2023-04-15T12:29:07;101775.63;;;19.87;43.98
36692;BME280;22678;52.052;4.242;2023-04-15T12:31:34;101783.78;;;19.82;44.38
36692;BME280;22678;52.052;4.242;2023-04-15T12:34:01;101779.41;;;19.80;44.24
36692;BME280;22678;52.052;4.242;2023-04-15T12:36:27;101789.31;;;19.76;44.67
36692;BME280;22678;52.052;4.242;2023-04-15T12:38:54;101795.22;;;19.86;44.77
36692;BME280;22678;52.052;4.242;2023-04-15T12:41:20;101784.56;;;19.86;44.23
36692;BME280;22678;52.052;4.242;2023-04-15T12:43:46;101792.84;;;19.76;44.25
36692;BME280;22678;52.052;4.242;2023-04-15T12:46:12;101799.38;;;19.66;44.50
36692;BME280;22678;52.052;4.242;2023-04-15T12:48:39;101798.72;;;19.58;44.92
36692;BME280;22678;52.052;4.242;2023-04-15T12:51:04;101798.97;;;19.50;44.70
36692;BME280;22678;52.052;4.242;2023-04-15T12:53:30;101791.44;;;19.35;45.23
36692;BME280;22678;52.052;4.242;2023-04-15T12:55:55;101797.84;;;19.29;45.42
36692;BME280;22678;52.052;4.242;2023-04-15T12:58:21;101793.41;;;19.28;44.95
36692;BME280;22678;52.052;4.242;2023-04-15T13:00:46;101813.69;;;19.34;45.00
36692;BME280;22678;52.052;4.242;2023-04-15T13:03:11;101806.50;;;19.36;45.19
36692;BME280;22678;52.052;4.242;2023-04-15T13:05:38;101820.25;;;19.52;45.12
36692;BME280;22678;52.052;4.242;2023-04-15T13:08:04;101813.72;;;19.62;44.77
36692;BME280;22678;52.052;4.242;2023-04-15T13:10:30;101833.88;;;19.72;44.43
36692;BME280;22678;52.052;4.242;2023-04-15T13:12:56;101825.88;;;19.72;44.21